Time;durP1;ratioP1;P1;durP2;ratioP2;P2;SDS_P1;SDS_P2;PMS_P1;PMS_P2;Temp;Humidity;BMP_temperature;BMP_pressure;BME280_temperature;BME280_humidity;BME280_pressure;Samples;Min_cycle;Max_cycle;Signal;HPM_P1;HPM_P2
2022/04/17 00:01:55;;;;;;;;;;;8.70;42.10;;;;;;4961979;28;19921;-89
2022/04/17 00:04:21;;;;;;;;;;;8.60;42.30;;;;;;4961348;28;20016;-89
2022/04/17 00:06:46;;;;;;;;;;;8.70;42.40;;;;;;4961585;28;19914;-90
2022/04/17 00:09:12;;;;;;;;;;;8.60;42.40;;;;;;4961358;28;19914;-90
2022/04/17 00:11:38;;;;;;;;;;;8.70;42.50;;;;;;4961429;28;19945;-90
2022/04/17 00:14:03;;;;;;;;;;;8.70;42.50;;;;;;4978994;28;19914;-89
2022/04/17 00:16:29;;;;;;;;;;;8.70;42.60;;;;;;4961435;28;19910;-90
2022/04/17 00:18:54;;;;;;;;;;;8.70;42.60;;;;;;4978756;28;19921;-90
2022/04/17 00:21:22;;;;;;;;;;;8.60;42.70;;;;;;4961678;28;19910;-89
2022/04/17 00:23:48;;;;;;;;;;;8.60;42.60;;;;;;4962042;28;19934;-90
2022/04/17 00:26:13;;;;;;;;;;;8.60;42.50;;;;;;4961821;28;19911;-90
2022/04/17 00:28:39;;;;;;;;;;;8.50;42.50;;;;;;4962279;28;19918;-90
2022/04/17 00:31:04;;;;;;;;;;;8.50;42.60;;;;;;4961258;28;20262;-89
2022/04/17 00:33:31;;;;;;;;;;;8.50;42.90;;;;;;4961629;28;19914;-89
2022/04/17 00:35:57;;;;;;;;;;;8.40;43.10;;;;;;4961458;28;19949;-90
2022/04/17 00:38:22;;;;;;;;;;;8.40;42.90;;;;;;4961256;28;19914;-89
2022/04/17 00:40:48;;;;;;;;;;;8.40;43.00;;;;;;4961291;28;19918;-89
2022/04/17 00:43:30;;;;;;;;;;;8.40;43.20;;;;;;4961045;28;19914;-90
2022/04/17 00:45:56;;;;;;;;;;;8.40;43.10;;;;;;4961391;28;19914;-90
2022/04/17 00:48:21;;;;;;;;;;;8.40;43.00;;;;;;4978702;28;19915;-89
2022/04/17 00:50:48;;;;;;;;;;;8.40;43.00;;;;;;4961201;28;19918;-89
2022/04/17 00:53:14;;;;;;;;;;;8.40;43.10;;;;;;4979347;28;20385;-89
2022/04/17 00:55:40;;;;;;;;;;;8.40;43.20;;;;;;4961727;28;19914;-89
2022/04/17 00:58:06;;;;;;;;;;;8.40;43.10;;;;;;4979751;28;20023;-90
2022/04/17 01:00:33;;;;;;;;;;;8.40;43.10;;;;;;4962344;28;19925;-89
2022/04/17 01:02:59;;;;;;;;;;;8.40;43.20;;;;;;4978104;28;19969;-92
2022/04/17 01:05:24;;;;;;;;;;;8.40;43.10;;;;;;4960122;28;19910;-89
2022/04/17 01:07:50;;;;;;;;;;;8.30;43.00;;;;;;4960732;28;19918;-89
2022/04/17 01:10:16;;;;;;;;;;;8.30;43.00;;;;;;4977741;28;19910;-91
2022/04/17 01:12:41;;;;;;;;;;;8.20;43.00;;;;;;4978392;28;20504;-89
2022/04/17 01:15:07;;;;;;;;;;;8.20;42.90;;;;;;4960842;28;19910;-89
2022/04/17 01:17:33;;;;;;;;;;;8.20;42.90;;;;;;4961313;28;19918;-89
2022/04/17 01:19:58;;;;;;;;;;;8.10;43.20;;;;;;4978463;28;20282;-89
2022/04/17 01:22:25;;;;;;;;;;;8.10;43.50;;;;;;4960566;28;19918;-90
2022/04/17 01:27:35;;;;;;;;;;;8.00;43.50;;;;;;4978443;28;19926;-90
2022/04/17 01:30:03;;;;;;;;;;;7.90;43.50;;;;;;4960245;28;19917;-90
2022/04/17 01:32:28;;;;;;;;;;;7.90;43.80;;;;;;4977510;28;19945;-89
2022/04/17 01:34:54;;;;;;;;;;;7.80;44.30;;;;;;4960208;28;19910;-89
2022/04/17 01:37:19;;;;;;;;;;;7.90;44.70;;;;;;4977323;28;19964;-90
2022/04/17 01:39:45;;;;;;;;;;;7.90;44.80;;;;;;4960222;28;20374;-90
2022/04/17 01:42:13;;;;;;;;;;;7.80;44.50;;;;;;4977915;28;19918;-90
2022/04/17 01:44:39;;;;;;;;;;;7.90;44.30;;;;;;4977686;28;19942;-90
2022/04/17 01:47:04;;;;;;;;;;;7.90;44.20;;;;;;4978091;28;19925;-89
2022/04/17 01:49:30;;;;;;;;;;;7.90;44.30;;;;;;4961292;28;19914;-90
2022/04/17 01:51:56;;;;;;;;;;;7.90;44.20;;;;;;4960562;28;19922;-89
2022/04/17 01:54:22;;;;;;;;;;;7.80;44.10;;;;;;4977931;28;20263;-90
2022/04/17 01:56:48;;;;;;;;;;;7.80;44.20;;;;;;4977895;28;19915;-90
2022/04/17 01:59:14;;;;;;;;;;;7.80;44.20;;;;;;4960182;28;20306;-89
2022/04/17 02:01:40;;;;;;;;;;;7.80;44.20;;;;;;4975902;28;19916;-86
2022/04/17 02:04:06;;;;;;;;;;;7.70;44.20;;;;;;4976039;28;20382;-86
2022/04/17 02:06:32;;;;;;;;;;;7.70;44.60;;;;;;4958381;28;19945;-86
2022/04/17 02:08:58;;;;;;;;;;;7.70;44.90;;;;;;4942634;28;19949;-86
2022/04/17 02:11:26;;;;;;;;;;;7.70;45.00;;;;;;4958300;28;19918;-86
2022/04/17 02:13:53;;;;;;;;;;;7.70;44.90;;;;;;4958490;28;19922;-86
2022/04/17 02:16:18;;;;;;;;;;;7.70;44.90;;;;;;4958114;28;19914;-86
2022/04/17 02:18:45;;;;;;;;;;;7.70;44.90;;;;;;4975713;28;19925;-86
2022/04/17 02:21:11;;;;;;;;;;;7.70;44.80;;;;;;4975435;28;20290;-86
2022/04/17 02:23:36;;;;;;;;;;;7.70;44.60;;;;;;4958141;28;19976;-86
2022/04/17 02:26:01;;;;;;;;;;;7.60;44.50;;;;;;4975486;28;19917;-86
2022/04/17 02:28:29;;;;;;;;;;;7.60;44.50;;;;;;4958228;28;19924;-86
2022/04/17 02:30:54;;;;;;;;;;;7.50;44.60;;;;;;4975320;28;19940;-86
2022/04/17 02:33:20;;;;;;;;;;;7.50;44.60;;;;;;4957927;28;19922;-86
2022/04/17 02:35:46;;;;;;;;;;;7.50;44.50;;;;;;4975330;28;20458;-86
2022/04/17 02:38:14;;;;;;;;;;;7.40;44.40;;;;;;4957894;28;19945;-86
2022/04/17 02:40:40;;;;;;;;;;;7.40;44.40;;;;;;4975609;28;20429;-86
2022/04/17 02:43:05;;;;;;;;;;;7.40;44.60;;;;;;4975679;28;19918;-87
2022/04/17 02:45:31;;;;;;;;;;;7.30;44.60;;;;;;4958535;28;19910;-86
2022/04/17 02:47:56;;;;;;;;;;;7.30;44.60;;;;;;4957743;28;19918;-87
2022/04/17 02:50:23;;;;;;;;;;;7.20;44.70;;;;;;4975426;28;19914;-86
2022/04/17 02:52:48;;;;;;;;;;;7.10;44.80;;;;;;4975363;28;20301;-87
2022/04/17 02:55:13;;;;;;;;;;;7.10;44.80;;;;;;4957852;28;19914;-86
2022/04/17 02:57:39;;;;;;;;;;;7.00;45.00;;;;;;4958103;28;20006;-87
2022/04/17 03:00:07;;;;;;;;;;;7.00;45.40;;;;;;4957796;28;19911;-86
2022/04/17 03:05:36;;;;;;;;;;;7.00;45.80;;;;;;4975317;28;20014;-86
2022/04/17 03:08:02;;;;;;;;;;;7.00;45.80;;;;;;4957888;28;19941;-86
2022/04/17 03:10:27;;;;;;;;;;;6.90;45.80;;;;;;4974701;28;20268;-86
2022/04/17 03:12:53;;;;;;;;;;;6.90;45.50;;;;;;4957539;28;19972;-86
2022/04/17 03:15:18;;;;;;;;;;;6.90;45.60;;;;;;4974990;28;19914;-86
2022/04/17 03:17:44;;;;;;;;;;;6.90;45.70;;;;;;4957161;28;19981;-86
2022/04/17 03:20:10;;;;;;;;;;;6.90;45.60;;;;;;4957366;28;19945;-87
2022/04/17 03:22:35;;;;;;;;;;;6.90;45.40;;;;;;4957295;28;19953;-86
2022/04/17 03:25:01;;;;;;;;;;;6.80;45.40;;;;;;4957579;28;20004;-86
2022/04/17 03:27:28;;;;;;;;;;;6.80;45.50;;;;;;4973936;28;19914;-86
2022/04/17 03:29:54;;;;;;;;;;;6.80;45.60;;;;;;4957597;28;20353;-87
2022/04/17 03:32:19;;;;;;;;;;;6.70;45.70;;;;;;4974649;28;19922;-86
2022/04/17 03:34:45;;;;;;;;;;;6.70;45.70;;;;;;4974705;28;19914;-86
2022/04/17 03:37:10;;;;;;;;;;;6.70;45.60;;;;;;4974638;28;20278;-86
2022/04/17 03:39:36;;;;;;;;;;;6.60;45.50;;;;;;4957285;28;20270;-86
2022/04/17 03:42:01;;;;;;;;;;;6.50;45.60;;;;;;4972978;28;19965;-86
2022/04/17 03:44:27;;;;;;;;;;;6.50;45.70;;;;;;4974616;28;20279;-86
2022/04/17 03:46:52;;;;;;;;;;;6.50;45.60;;;;;;4957323;28;20060;-86
2022/04/17 03:49:18;;;;;;;;;;;6.40;45.60;;;;;;4974758;28;20354;-86
2022/04/17 03:51:43;;;;;;;;;;;6.40;45.60;;;;;;4974491;28;19922;-86
2022/04/17 03:54:09;;;;;;;;;;;6.30;45.80;;;;;;4974492;28;19914;-86
2022/04/17 03:56:34;;;;;;;;;;;6.20;45.80;;;;;;4956842;28;20325;-86
2022/04/17 03:59:01;;;;;;;;;;;6.20;45.70;;;;;;4973950;28;19968;-86
2022/04/17 04:01:27;;;;;;;;;;;6.10;46.00;;;;;;4956712;28;19917;-86
2022/04/17 04:03:54;;;;;;;;;;;6.10;46.40;;;;;;4956830;28;19914;-86
2022/04/17 04:06:20;;;;;;;;;;;6.00;46.50;;;;;;4957040;28;20250;-86
2022/04/17 04:08:45;;;;;;;;;;;6.00;46.40;;;;;;4956597;28;20290;-86
2022/04/17 04:11:11;;;;;;;;;;;5.90;46.40;;;;;;4956399;28;19914;-85
2022/04/17 04:13:36;;;;;;;;;;;5.90;46.50;;;;;;4956612;28;20307;-87
2022/04/17 04:16:02;;;;;;;;;;;5.80;46.60;;;;;;4973952;28;19926;-86
2022/04/17 04:18:27;;;;;;;;;;;5.80;46.70;;;;;;4956149;28;19914;-86
2022/04/17 04:20:53;;;;;;;;;;;5.90;46.70;;;;;;4956435;28;19922;-86
2022/04/17 04:23:21;;;;;;;;;;;5.80;46.70;;;;;;4973812;28;19917;-87
2022/04/17 04:25:46;;;;;;;;;;;5.80;46.90;;;;;;4974226;28;20009;-87
2022/04/17 04:30:56;;;;;;;;;;;5.90;47.10;;;;;;4973871;28;19973;-86
2022/04/17 04:33:21;;;;;;;;;;;5.90;47.10;;;;;;4956721;28;19914;-87
2022/04/17 04:35:47;;;;;;;;;;;5.90;47.10;;;;;;4956665;28;20266;-87
2022/04/17 04:38:12;;;;;;;;;;;6.00;47.70;;;;;;4974670;28;19910;-86
2022/04/17 04:40:37;;;;;;;;;;;6.10;48.60;;;;;;4959820;28;19922;-86
2022/04/17 04:43:04;;;;;;;;;;;6.30;49.50;;;;;;4977250;28;20279;-87
2022/04/17 04:48:13;;;;;;;;;;;6.90;50.00;;;;;;4977144;28;19921;-86
2022/04/17 04:50:39;;;;;;;;;;;7.20;50.30;;;;;;4977064;28;20282;-86
2022/04/17 04:53:04;;;;;;;;;;;7.60;50.50;;;;;;4976872;28;19956;-87
2022/04/17 04:55:30;;;;;;;;;;;7.90;50.70;;;;;;4958964;28;19915;-87
2022/04/17 04:57:55;;;;;;;;;;;8.30;50.80;;;;;;4959397;28;19970;-87
2022/04/17 05:00:21;;;;;;;;;;;8.70;50.80;;;;;;4958840;28;20013;-87
2022/04/17 05:02:46;;;;;;;;;;;9.10;50.80;;;;;;4976239;28;19965;-87
2022/04/17 05:05:12;;;;;;;;;;;9.40;50.60;;;;;;4959334;28;19941;-87
2022/04/17 05:07:37;;;;;;;;;;;9.90;50.50;;;;;;4958890;28;19918;-86
2022/04/17 05:10:06;;;;;;;;;;;10.30;50.40;;;;;;4976465;28;19976;-87
2022/04/17 05:12:32;;;;;;;;;;;10.70;50.30;;;;;;4976393;28;19957;-87
2022/04/17 05:14:58;;;;;;;;;;;11.20;50.00;;;;;;4958944;28;19922;-87
2022/04/17 05:17:24;;;;;;;;;;;11.60;49.80;;;;;;4976096;28;19914;-85
2022/04/17 05:19:50;;;;;;;;;;;12.10;49.50;;;;;;4958826;28;20281;-86
2022/04/17 05:22:16;;;;;;;;;;;12.50;49.10;;;;;;4960087;28;19910;-89
2022/04/17 05:24:42;;;;;;;;;;;13.00;48.60;;;;;;4960323;28;20377;-89
2022/04/17 05:27:08;;;;;;;;;;;13.40;47.70;;;;;;4977549;28;19977;-89
2022/04/17 05:29:33;;;;;;;;;;;13.90;47.00;;;;;;4977473;28;19965;-89
2022/04/17 05:31:59;;;;;;;;;;;14.30;46.30;;;;;;4959912;28;19958;-89
2022/04/17 05:34:24;;;;;;;;;;;14.70;46.20;;;;;;4960642;28;19922;-90
2022/04/17 05:36:50;;;;;;;;;;;15.10;45.70;;;;;;4959727;28;19910;-90
2022/04/17 05:39:15;;;;;;;;;;;15.60;45.50;;;;;;4960126;28;19918;-90
2022/04/17 05:41:41;;;;;;;;;;;16.00;45.10;;;;;;4960132;28;19918;-90
2022/04/17 05:44:07;;;;;;;;;;;16.50;44.00;;;;;;4960197;28;19969;-89
2022/04/17 05:46:35;;;;;;;;;;;17.00;43.20;;;;;;4977623;28;19914;-90
2022/04/17 05:49:05;;;;;;;;;;;17.50;42.70;;;;;;4976705;28;19925;-90
2022/04/17 05:51:32;;;;;;;;;;;17.90;42.00;;;;;;4961410;28;19918;-91
2022/04/17 05:53:59;;;;;;;;;;;18.40;40.60;;;;;;4960094;28;19918;-91
2022/04/17 05:56:25;;;;;;;;;;;18.90;39.90;;;;;;4962975;28;19949;-90
2022/04/17 05:58:51;;;;;;;;;;;19.30;38.90;;;;;;4961090;28;19937;-90
2022/04/17 06:01:16;;;;;;;;;;;19.80;37.60;;;;;;4961896;28;19961;-90
2022/04/17 06:03:41;;;;;;;;;;;20.20;36.40;;;;;;4960178;28;20274;-90
2022/04/17 06:06:07;;;;;;;;;;;20.60;35.50;;;;;;4978220;28;20421;-89
2022/04/17 06:08:32;;;;;;;;;;;20.90;35.30;;;;;;4975953;28;20420;-87
2022/04/17 06:10:59;;;;;;;;;;;21.30;34.80;;;;;;4976106;28;19918;-88
2022/04/17 06:13:24;;;;;;;;;;;21.80;34.10;;;;;;4959781;28;19921;-88
2022/04/17 06:15:50;;;;;;;;;;;22.10;33.90;;;;;;4960310;28;19918;-90
2022/04/17 06:18:17;;;;;;;;;;;22.50;33.40;;;;;;4978364;28;19910;-91
2022/04/17 06:20:42;;;;;;;;;;;22.90;32.80;;;;;;4977929;28;20100;-90
2022/04/17 06:23:08;;;;;;;;;;;23.30;32.00;;;;;;4978681;28;20720;-91
2022/04/17 06:25:33;;;;;;;;;;;23.60;31.90;;;;;;4978606;28;19922;-91
2022/04/17 06:27:59;;;;;;;;;;;24.00;31.40;;;;;;4978074;28;20058;-91
2022/04/17 06:30:25;;;;;;;;;;;24.30;31.10;;;;;;4977782;28;19918;-90
2022/04/17 06:32:50;;;;;;;;;;;24.70;29.80;;;;;;4977163;28;20278;-90
2022/04/17 06:35:17;;;;;;;;;;;25.10;29.10;;;;;;4959301;28;19982;-91
2022/04/17 06:37:45;;;;;;;;;;;25.40;28.50;;;;;;4959524;28;20323;-91
2022/04/17 06:40:11;;;;;;;;;;;25.80;27.80;;;;;;4958899;28;19934;-90
2022/04/17 06:42:36;;;;;;;;;;;26.10;27.30;;;;;;4959856;28;20259;-91
2022/04/17 06:45:02;;;;;;;;;;;26.30;27.00;;;;;;4977395;28;19957;-90
2022/04/17 06:47:30;;;;;;;;;;;26.70;26.10;;;;;;4960130;28;19914;-90
2022/04/17 06:49:55;;;;;;;;;;;26.70;25.00;;;;;;4960013;28;19969;-90
2022/04/17 06:52:20;;;;;;;;;;;26.80;24.60;;;;;;4959611;28;19922;-89
2022/04/17 06:54:46;;;;;;;;;;;27.00;24.70;;;;;;4979490;28;19918;-89
2022/04/17 06:57:11;;;;;;;;;;;27.30;24.60;;;;;;4978590;28;19910;-90
2022/04/17 06:59:39;;;;;;;;;;;27.40;23.60;;;;;;4959511;28;19921;-90
2022/04/17 07:02:05;;;;;;;;;;;27.50;23.40;;;;;;4958423;28;20017;-89
2022/04/17 07:04:30;;;;;;;;;;;27.40;23.20;;;;;;4977557;28;20014;-90
2022/04/17 07:06:56;;;;;;;;;;;27.30;22.50;;;;;;4977540;28;20359;-91
2022/04/17 07:09:21;;;;;;;;;;;27.20;22.60;;;;;;4960938;28;19973;-91
2022/04/17 07:11:47;;;;;;;;;;;27.30;22.70;;;;;;4959790;28;19929;-89
2022/04/17 07:14:14;;;;;;;;;;;27.50;22.50;;;;;;4976777;28;19929;-91
2022/04/17 07:16:41;;;;;;;;;;;27.80;22.50;;;;;;4959527;28;19921;-90
2022/04/17 07:19:06;;;;;;;;;;;28.00;22.10;;;;;;4959208;28;19918;-90
2022/04/17 07:21:32;;;;;;;;;;;28.00;21.60;;;;;;4977977;28;19977;-90
2022/04/17 07:23:57;;;;;;;;;;;28.10;21.40;;;;;;4976490;28;20285;-89
2022/04/17 07:26:23;;;;;;;;;;;28.30;21.30;;;;;;4959003;28;19916;-90
2022/04/17 07:28:49;;;;;;;;;;;28.40;21.00;;;;;;4959812;28;19918;-90
2022/04/17 07:31:14;;;;;;;;;;;28.60;20.50;;;;;;4976550;28;19914;-90
2022/04/17 07:33:40;;;;;;;;;;;28.70;20.70;;;;;;4959638;28;20026;-90
2022/04/17 07:36:06;;;;;;;;;;;28.80;19.90;;;;;;4976954;28;20011;-90
2022/04/17 07:38:31;;;;;;;;;;;28.80;19.70;;;;;;4959985;28;20282;-90
2022/04/17 07:40:59;;;;;;;;;;;28.80;19.50;;;;;;4977570;28;19961;-90
2022/04/17 07:43:25;;;;;;;;;;;28.80;19.70;;;;;;4976715;28;19910;-90
2022/04/17 07:45:52;;;;;;;;;;;29.00;19.60;;;;;;4959131;28;19914;-91
2022/04/17 07:48:18;;;;;;;;;;;29.20;19.80;;;;;;4976784;28;19910;-91
2022/04/17 07:50:46;;;;;;;;;;;29.30;19.20;;;;;;4959208;28;19973;-90
2022/04/17 07:53:11;;;;;;;;;;;29.30;19.10;;;;;;4959352;28;19922;-91
2022/04/17 07:55:37;;;;;;;;;;;29.60;19.40;;;;;;4959440;28;19918;-91
2022/04/17 07:58:16;;;;;;;;;;;29.90;19.20;;;;;;4959814;28;19910;-91
2022/04/17 08:00:57;;;;;;;;;;;30.20;19.20;;;;;;4976908;28;19922;-91
2022/04/17 08:03:37;;;;;;;;;;;30.60;18.40;;;;;;4976641;28;19953;-91
2022/04/17 08:06:06;;;;;;;;;;;30.80;18.30;;;;;;4956470;28;20351;-90
2022/04/17 08:08:32;;;;;;;;;;;30.90;18.00;;;;;;4976616;28;19964;-91
2022/04/17 08:10:57;;;;;;;;;;;31.10;18.10;;;;;;4958534;28;20358;-91
2022/04/17 08:13:23;;;;;;;;;;;31.40;18.30;;;;;;4960329;28;20016;-91
2022/04/17 08:15:50;;;;;;;;;;;31.70;17.90;;;;;;4962112;28;20376;-90
2022/04/17 08:18:15;;;;;;;;;;;31.80;17.50;;;;;;4962309;28;20069;-91
2022/04/17 08:20:41;;;;;;;;;;;31.80;17.50;;;;;;4962007;28;20035;-91
2022/04/17 08:23:06;;;;;;;;;;;31.80;17.10;;;;;;4961839;28;19953;-91
2022/04/17 08:25:34;;;;;;;;;;;31.80;16.80;;;;;;4979763;28;19926;-91
2022/04/17 08:28:00;;;;;;;;;;;31.90;16.90;;;;;;4969243;28;20001;-90
2022/04/17 08:30:27;;;;;;;;;;;32.00;16.70;;;;;;4941303;29;19954;-91
2022/04/17 08:32:52;;;;;;;;;;;32.10;16.70;;;;;;4942587;29;20428;-92
2022/04/17 08:35:18;;;;;;;;;;;32.10;16.20;;;;;;4960680;29;19922;-90
2022/04/17 08:37:44;;;;;;;;;;;32.00;16.20;;;;;;4944878;28;19911;-91
2022/04/17 08:40:10;;;;;;;;;;;32.00;16.30;;;;;;4962134;28;19919;-92
2022/04/17 08:42:36;;;;;;;;;;;31.90;16.00;;;;;;4942220;29;19915;-90
2022/04/17 08:45:01;;;;;;;;;;;32.00;15.90;;;;;;4959007;29;19966;-92
2022/04/17 08:47:27;;;;;;;;;;;32.00;15.80;;;;;;4959234;29;19914;-91
2022/04/17 08:49:54;;;;;;;;;;;32.00;15.80;;;;;;4960440;29;19934;-91
2022/04/17 08:52:19;;;;;;;;;;;31.80;15.60;;;;;;4942209;29;20383;-92
2022/04/17 08:54:48;;;;;;;;;;;31.50;15.50;;;;;;4942264;29;19927;-91
2022/04/17 08:57:16;;;;;;;;;;;31.40;15.70;;;;;;4942402;29;19942;-91
2022/04/17 08:59:42;;;;;;;;;;;31.30;15.60;;;;;;4942376;29;19930;-90
2022/04/17 09:02:10;;;;;;;;;;;31.20;15.90;;;;;;4958969;28;19911;-91
2022/04/17 09:04:36;;;;;;;;;;;31.30;15.50;;;;;;4959064;29;19997;-90
2022/04/17 09:07:01;;;;;;;;;;;31.20;15.50;;;;;;4942106;29;20337;-90
2022/04/17 09:09:28;;;;;;;;;;;31.30;15.80;;;;;;4941933;29;19919;-90
2022/04/17 09:11:57;;;;;;;;;;;31.50;16.00;;;;;;4941213;29;19919;-90
2022/04/17 09:14:23;;;;;;;;;;;31.90;15.70;;;;;;4942471;29;19950;-90
2022/04/17 09:16:52;;;;;;;;;;;32.20;15.10;;;;;;4942180;29;20389;-90
2022/04/17 09:19:18;;;;;;;;;;;31.90;13.60;;;;;;4959556;29;19918;-90
2022/04/17 09:21:55;;;;;;;;;;;31.60;14.20;;;;;;4941239;29;19941;-90
2022/04/17 09:24:22;;;;;;;;;;;31.30;14.30;;;;;;4941234;29;19918;-90
2022/04/17 09:26:58;;;;;;;;;;;31.00;13.40;;;;;;4942006;28;19997;-90
2022/04/17 09:29:36;;;;;;;;;;;30.60;13.20;;;;;;4960617;28;20715;-90
2022/04/17 09:32:08;;;;;;;;;;;30.40;13.40;;;;;;4960090;28;20271;-90
2022/04/17 09:34:46;;;;;;;;;;;30.00;13.70;;;;;;4960672;28;19941;-90
2022/04/17 09:37:13;;;;;;;;;;;29.70;13.80;;;;;;4961384;28;19914;-90
2022/04/17 09:39:41;;;;;;;;;;;29.80;14.20;;;;;;4961289;28;19918;-90
2022/04/17 09:42:07;;;;;;;;;;;30.00;13.70;;;;;;4978941;28;20362;-90
2022/04/17 09:44:33;;;;;;;;;;;30.00;13.80;;;;;;4961529;28;19969;-90
2022/04/17 09:46:58;;;;;;;;;;;30.00;14.10;;;;;;4977327;28;20029;-90
2022/04/17 09:49:24;;;;;;;;;;;30.20;14.20;;;;;;4961049;28;19923;-90
2022/04/17 09:52:04;;;;;;;;;;;30.10;14.10;;;;;;4973421;28;19981;-90
2022/04/17 09:54:30;;;;;;;;;;;30.00;14.40;;;;;;4974748;28;19925;-89
2022/04/17 09:56:56;;;;;;;;;;;30.00;14.40;;;;;;4966953;28;19915;-89
2022/04/17 09:59:22;;;;;;;;;;;30.00;14.20;;;;;;4940772;29;19918;-92
2022/04/17 10:01:57;;;;;;;;;;;29.80;14.30;;;;;;4958355;29;20632;-90
2022/04/17 10:04:26;;;;;;;;;;;29.80;14.10;;;;;;4941620;29;19926;-90
2022/04/17 10:06:52;;;;;;;;;;;29.80;14.20;;;;;;4941044;29;19921;-91
2022/04/17 10:09:19;;;;;;;;;;;29.90;14.50;;;;;;4957951;29;19919;-91
2022/04/17 10:11:45;;;;;;;;;;;29.80;14.40;;;;;;4941506;29;19929;-91
2022/04/17 10:14:10;;;;;;;;;;;29.60;14.50;;;;;;4956849;29;19919;-92
2022/04/17 10:16:41;;;;;;;;;;;29.70;14.70;;;;;;4939129;29;19961;-91
2022/04/17 10:19:10;;;;;;;;;;;30.00;14.50;;;;;;4956396;28;19954;-91
2022/04/17 10:21:37;;;;;;;;;;;30.20;13.90;;;;;;4939830;29;19910;-91
2022/04/17 10:24:04;;;;;;;;;;;30.00;13.70;;;;;;4939611;29;19962;-91
2022/04/17 10:26:31;;;;;;;;;;;30.00;14.00;;;;;;4939284;29;19910;-92
2022/04/17 10:28:59;;;;;;;;;;;29.90;14.00;;;;;;4939161;29;19934;-91
2022/04/17 10:31:30;;;;;;;;;;;29.80;13.80;;;;;;4939401;29;19944;-91
2022/04/17 10:34:17;;;;;;;;;;;29.60;13.80;;;;;;4939131;29;20017;-91
2022/04/17 10:36:49;;;;;;;;;;;29.70;14.30;;;;;;4938882;29;19972;-91
2022/04/17 10:39:17;;;;;;;;;;;29.80;14.40;;;;;;4956072;29;20011;-91
2022/04/17 10:41:43;;;;;;;;;;;30.10;14.30;;;;;;4938668;29;19919;-91
2022/04/17 10:44:12;;;;;;;;;;;30.50;13.90;;;;;;4938727;29;19941;-91
2022/04/17 10:46:44;;;;;;;;;;;30.60;13.10;;;;;;4940814;29;19922;-91
2022/04/17 10:49:09;;;;;;;;;;;30.30;13.00;;;;;;4956746;29;19922;-91
2022/04/17 10:51:35;;;;;;;;;;;30.00;13.20;;;;;;4938350;29;19922;-91
2022/04/17 10:54:05;;;;;;;;;;;29.80;13.10;;;;;;4938820;29;19919;-91
2022/04/17 10:56:35;;;;;;;;;;;29.90;13.50;;;;;;4938968;29;19922;-91
2022/04/17 10:59:06;;;;;;;;;;;30.30;13.50;;;;;;4940453;29;19918;-91
2022/04/17 11:01:52;;;;;;;;;;;30.50;13.20;;;;;;4956468;29;19915;-92
2022/04/17 11:04:19;;;;;;;;;;;30.70;13.40;;;;;;4939865;29;20303;-91
2022/04/17 11:06:45;;;;;;;;;;;30.90;13.60;;;;;;4940787;29;19921;-91
2022/04/17 11:09:15;;;;;;;;;;;30.90;13.60;;;;;;4940633;29;19919;-91
2022/04/17 11:11:43;;;;;;;;;;;31.00;13.80;;;;;;4940414;29;19914;-92
2022/04/17 11:14:09;;;;;;;;;;;31.10;13.10;;;;;;4958285;29;20566;-90
2022/04/17 11:16:53;;;;;;;;;;;31.10;13.00;;;;;;4940678;29;19915;-91
2022/04/17 11:19:20;;;;;;;;;;;31.20;13.00;;;;;;4940437;29;19922;-91
2022/04/17 11:22:12;;;;;;;;;;;31.20;12.80;;;;;;4940530;29;19965;-91
2022/04/17 11:24:57;;;;;;;;;;;31.10;12.90;;;;;;4935990;29;19915;-91
2022/04/17 11:27:31;;;;;;;;;;;31.30;12.90;;;;;;4940374;29;20335;-91
2022/04/17 11:29:57;;;;;;;;;;;31.30;12.70;;;;;;4940066;29;19915;-92
2022/04/17 11:32:23;;;;;;;;;;;31.40;12.50;;;;;;4939881;29;19925;-89
2022/04/17 11:38:06;;;;;;;;;;;31.00;12.10;;;;;;4947014;29;19918;-91
2022/04/17 11:40:32;;;;;;;;;;;30.80;12.60;;;;;;4957458;29;19917;-91
2022/04/17 11:43:04;;;;;;;;;;;31.00;12.60;;;;;;4941195;29;19974;-90
2022/04/17 11:45:30;;;;;;;;;;;31.10;12.50;;;;;;4957519;29;19922;-90
2022/04/17 11:47:55;;;;;;;;;;;31.20;12.70;;;;;;4939515;29;19914;-91
2022/04/17 11:50:26;;;;;;;;;;;31.40;12.50;;;;;;4940536;29;19914;-90
2022/04/17 11:52:53;;;;;;;;;;;31.50;12.20;;;;;;4940856;29;19925;-91
2022/04/17 11:55:25;;;;;;;;;;;31.40;12.30;;;;;;4939881;29;19946;-91
2022/04/17 11:57:51;;;;;;;;;;;31.30;12.00;;;;;;4940160;29;19917;-91
2022/04/17 12:00:16;;;;;;;;;;;31.40;12.00;;;;;;4940516;29;20016;-91
2022/04/17 12:02:41;;;;;;;;;;;31.30;12.00;;;;;;4939945;29;19910;-90
2022/04/17 12:05:12;;;;;;;;;;;31.20;11.80;;;;;;4939319;29;20311;-91
2022/04/17 12:07:38;;;;;;;;;;;31.30;12.00;;;;;;4955585;29;19914;-90
2022/04/17 12:10:11;;;;;;;;;;;31.40;12.10;;;;;;4938633;29;20271;-91
2022/04/17 12:12:38;;;;;;;;;;;31.40;12.00;;;;;;4955766;29;19919;-91
2022/04/17 12:15:04;;;;;;;;;;;31.40;12.00;;;;;;4957684;29;20351;-90
2022/04/17 12:17:33;;;;;;;;;;;31.50;12.10;;;;;;4956707;29;20267;-90
2022/04/17 12:19:59;;;;;;;;;;;31.40;12.40;;;;;;4940264;29;19925;-90
2022/04/17 12:22:25;;;;;;;;;;;31.30;12.00;;;;;;4939988;29;20363;-90
2022/04/17 12:24:51;;;;;;;;;;;31.10;12.10;;;;;;4940554;29;19922;-91
2022/04/17 12:27:20;;;;;;;;;;;31.10;12.50;;;;;;4957018;29;19998;-90
2022/04/17 12:29:46;;;;;;;;;;;31.30;12.10;;;;;;4939837;29;19973;-91
2022/04/17 12:32:13;;;;;;;;;;;31.30;11.90;;;;;;4955585;29;20353;-92
2022/04/17 12:34:39;;;;;;;;;;;31.00;11.80;;;;;;4956541;29;19919;-91
2022/04/17 12:37:24;;;;;;;;;;;30.80;12.00;;;;;;4947681;28;19921;-90
2022/04/17 12:39:49;;;;;;;;;;;30.80;12.10;;;;;;4972239;28;20027;-89
2022/04/17 12:42:20;;;;;;;;;;;30.70;12.00;;;;;;4957000;29;20018;-90
2022/04/17 12:44:47;;;;;;;;;;;30.60;12.20;;;;;;4951309;28;19918;-90
2022/04/17 12:47:16;;;;;;;;;;;30.50;12.20;;;;;;4975135;28;20361;-91
2022/04/17 12:49:57;;;;;;;;;;;30.40;12.20;;;;;;4975779;28;20374;-90
2022/04/17 12:52:23;;;;;;;;;;;30.40;12.50;;;;;;4957834;28;20016;-90
2022/04/17 12:54:49;;;;;;;;;;;30.60;12.70;;;;;;4957914;28;19954;-92
2022/04/17 12:57:19;;;;;;;;;;;30.80;12.70;;;;;;4957573;28;19952;-90
2022/04/17 12:59:49;;;;;;;;;;;30.80;12.80;;;;;;4957808;28;20275;-89
2022/04/17 13:02:19;;;;;;;;;;;30.50;12.60;;;;;;4978070;28;19949;-89
2022/04/17 13:04:45;;;;;;;;;;;30.50;12.90;;;;;;4977949;28;20350;-90
2022/04/17 13:07:15;;;;;;;;;;;30.40;12.80;;;;;;4960771;28;19910;-89
2022/04/17 13:09:53;;;;;;;;;;;30.40;12.60;;;;;;4960820;28;19925;-90
2022/04/17 13:12:35;;;;;;;;;;;30.30;12.80;;;;;;4960245;28;19930;-89
2022/04/17 13:15:02;;;;;;;;;;;30.10;12.90;;;;;;4960363;28;19911;-89
2022/04/17 13:17:29;;;;;;;;;;;30.00;13.10;;;;;;4958373;28;19926;-89
2022/04/17 13:19:54;;;;;;;;;;;30.00;13.20;;;;;;4960088;28;19993;-90
2022/04/17 13:22:19;;;;;;;;;;;29.90;13.00;;;;;;4959812;28;19957;-91
2022/04/17 13:24:45;;;;;;;;;;;29.80;13.10;;;;;;4960190;28;20402;-89
2022/04/17 13:27:14;;;;;;;;;;;29.70;13.20;;;;;;4960355;28;20009;-90
2022/04/17 13:29:39;;;;;;;;;;;29.80;13.50;;;;;;4977983;28;19914;-90
2022/04/17 13:32:05;;;;;;;;;;;29.90;13.30;;;;;;4977673;28;20286;-90
2022/04/17 13:34:33;;;;;;;;;;;30.10;13.30;;;;;;4976814;28;19910;-90
2022/04/17 13:39:44;;;;;;;;;;;30.20;13.00;;;;;;4977605;28;20401;-91
2022/04/17 13:42:10;;;;;;;;;;;29.80;12.60;;;;;;4959717;28;19918;-91
2022/04/17 13:44:38;;;;;;;;;;;29.60;12.70;;;;;;4959871;28;19917;-90
2022/04/17 13:47:03;;;;;;;;;;;29.10;12.80;;;;;;4959468;28;20363;-91
2022/04/17 13:49:29;;;;;;;;;;;28.40;13.10;;;;;;4960065;28;19910;-90
2022/04/17 13:51:54;;;;;;;;;;;27.80;13.80;;;;;;4959813;28;19945;-91
2022/04/17 13:54:20;;;;;;;;;;;27.10;14.20;;;;;;4960370;28;20008;-90
2022/04/17 13:56:45;;;;;;;;;;;26.50;14.20;;;;;;4977174;28;19972;-90
2022/04/17 13:59:11;;;;;;;;;;;26.00;14.50;;;;;;4976903;28;20001;-91
2022/04/17 14:01:36;;;;;;;;;;;25.60;14.80;;;;;;4959750;28;19938;-91
2022/04/17 14:04:02;;;;;;;;;;;25.20;15.30;;;;;;4959754;28;20009;-90
2022/04/17 14:06:28;;;;;;;;;;;24.70;15.60;;;;;;4959732;28;20085;-90
2022/04/17 14:08:53;;;;;;;;;;;24.30;15.80;;;;;;4960206;28;20282;-90
2022/04/17 14:11:20;;;;;;;;;;;23.90;16.20;;;;;;4975943;28;19969;-90
2022/04/17 14:13:45;;;;;;;;;;;23.60;16.30;;;;;;4959290;28;20240;-90
2022/04/17 14:16:11;;;;;;;;;;;23.30;16.20;;;;;;4959135;28;19961;-90
2022/04/17 14:18:36;;;;;;;;;;;23.10;16.40;;;;;;4959640;28;19958;-90
2022/04/17 14:21:02;;;;;;;;;;;22.90;16.60;;;;;;4959943;28;19917;-90
2022/04/17 14:23:27;;;;;;;;;;;22.70;16.90;;;;;;4977724;28;20270;-90
2022/04/17 14:25:54;;;;;;;;;;;22.60;17.10;;;;;;4976069;28;19914;-90
2022/04/17 14:28:20;;;;;;;;;;;22.50;17.30;;;;;;4959737;28;19949;-92
2022/04/17 14:30:48;;;;;;;;;;;22.40;17.60;;;;;;4959064;28;19910;-90
2022/04/17 14:33:14;;;;;;;;;;;22.30;17.90;;;;;;4958584;28;19932;-90
2022/04/17 14:35:39;;;;;;;;;;;22.30;18.00;;;;;;4958851;28;19988;-89
2022/04/17 14:38:05;;;;;;;;;;;22.20;17.80;;;;;;4976487;28;19919;-90